sensor_id;sensor_type;location;lat;lon;timestamp;pressure;altitude;pressure_sealevel;temperature;humidity
6030;BME280;3043;42.682;23.376;2022-07-22T00:02:10;95024.16;;;22.70;100.00
6030;BME280;3043;42.682;23.376;2022-07-22T00:04:35;94990.72;;;22.33;100.00
6030;BME280;3043;42.682;23.376;2022-07-22T00:07:01;94992.75;;;22.17;100.00
6030;BME280;3043;42.682;23.376;2022-07-22T00:09:26;95017.94;;;22.34;100.00
6030;BME280;3043;42.682;23.376;2022-07-22T00:11:52;94987.38;;;22.06;100.00
6030;BME280;3043;42.682;23.376;2022-07-22T00:14:18;95028.69;;;22.31;100.00
6030;BME280;3043;42.682;23.376;2022-07-22T00:16:43;95028.06;;;22.40;100.00
6030;BME280;3043;42.682;23.376;2022-07-22T00:19:08;94976.81;;;22.06;100.00
6030;BME280;3043;42.682;23.376;2022-07-22T00:21:34;95031.88;;;22.23;100.00
6030;BME280;3043;42.682;23.376;2022-07-22T00:23:59;95033.16;;;22.18;100.00
6030;BME280;3043;42.682;23.376;2022-07-22T00:26:25;95034.81;;;22.06;100.00
6030;BME280;3043;42.682;23.376;2022-07-22T00:28:50;95029.72;;;21.91;100.00
6030;BME280;3043;42.682;23.376;2022-07-22T00:31:16;94982.19;;;21.41;100.00
6030;BME280;3043;42.682;23.376;2022-07-22T00:33:41;95026.06;;;21.54;100.00
6030;BME280;3043;42.682;23.376;2022-07-22T00:36:07;95014.41;;;21.19;100.00
6030;BME280;3043;42.682;23.376;2022-07-22T00:38:33;95036.72;;;21.26;100.00
6030;BME280;3043;42.682;23.376;2022-07-22T00:40:58;95039.75;;;21.20;100.00
6030;BME280;3043;42.682;23.376;2022-07-22T00:43:24;95039.41;;;21.12;100.00
6030;BME280;3043;42.682;23.376;2022-07-22T00:45:49;95035.66;;;21.16;100.00
6030;BME280;3043;42.682;23.376;2022-07-22T00:48:15;94992.72;;;20.87;100.00
6030;BME280;3043;42.682;23.376;2022-07-22T00:50:41;95036.41;;;21.04;100.00
6030;BME280;3043;42.682;23.376;2022-07-22T00:53:07;95019.59;;;20.92;100.00
6030;BME280;3043;42.682;23.376;2022-07-22T00:55:34;95030.03;;;20.94;100.00
6030;BME280;3043;42.682;23.376;2022-07-22T00:58:00;95026.09;;;21.01;100.00
6030;BME280;3043;42.682;23.376;2022-07-22T01:00:26;95016.31;;;21.03;100.00
6030;BME280;3043;42.682;23.376;2022-07-22T01:02:51;95027.56;;;21.19;100.00
6030;BME280;3043;42.682;23.376;2022-07-22T01:05:17;95020.47;;;21.20;100.00
6030;BME280;3043;42.682;23.376;2022-07-22T01:07:43;95009.06;;;21.06;100.00
6030;BME280;3043;42.682;23.376;2022-07-22T01:10:09;95031.16;;;21.04;100.00
6030;BME280;3043;42.682;23.376;2022-07-22T01:12:34;95028.00;;;20.99;100.00
6030;BME280;3043;42.682;23.376;2022-07-22T01:15:00;94977.09;;;20.72;100.00
6030;BME280;3043;42.682;23.376;2022-07-22T01:17:26;95030.22;;;21.05;100.00
6030;BME280;3043;42.682;23.376;2022-07-22T01:19:51;95017.66;;;20.96;100.00
6030;BME280;3043;42.682;23.376;2022-07-22T01:22:17;95015.94;;;20.95;100.00
6030;BME280;3043;42.682;23.376;2022-07-22T01:24:42;95019.91;;;21.02;100.00
6030;BME280;3043;42.682;23.376;2022-07-22T01:27:08;95019.16;;;21.00;100.00
6030;BME280;3043;42.682;23.376;2022-07-22T01:29:34;95021.88;;;20.98;100.00
6030;BME280;3043;42.682;23.376;2022-07-22T01:31:59;95025.16;;;21.02;100.00
6030;BME280;3043;42.682;23.376;2022-07-22T01:34:25;95001.69;;;20.85;100.00
6030;BME280;3043;42.682;23.376;2022-07-22T01:36:50;95024.00;;;21.06;100.00
6030;BME280;3043;42.682;23.376;2022-07-22T01:39:16;95028.69;;;21.15;100.00
6030;BME280;3043;42.682;23.376;2022-07-22T01:41:43;95015.19;;;21.07;100.00
6030;BME280;3043;42.682;23.376;2022-07-22T01:44:08;95007.50;;;20.90;100.00
6030;BME280;3043;42.682;23.376;2022-07-22T01:46:34;95030.03;;;21.08;100.00
6030;BME280;3043;42.682;23.376;2022-07-22T01:49:00;95028.88;;;21.12;100.00
6030;BME280;3043;42.682;23.376;2022-07-22T01:51:25;95024.22;;;21.03;100.00
6030;BME280;3043;42.682;23.376;2022-07-22T01:53:51;95002.81;;;20.81;100.00
6030;BME280;3043;42.682;23.376;2022-07-22T01:56:16;94962.66;;;20.51;100.00
6030;BME280;3043;42.682;23.376;2022-07-22T01:58:42;95034.19;;;20.84;100.00
6030;BME280;3043;42.682;23.376;2022-07-22T02:01:08;94990.94;;;20.61;100.00
6030;BME280;3043;42.682;23.376;2022-07-22T02:03:33;95032.31;;;20.86;100.00
6030;BME280;3043;42.682;23.376;2022-07-22T02:05:59;95030.81;;;20.82;100.00
6030;BME280;3043;42.682;23.376;2022-07-22T02:08:24;95036.28;;;20.79;100.00
6030;BME280;3043;42.682;23.376;2022-07-22T02:10:50;94992.75;;;20.47;100.00
6030;BME280;3043;42.682;23.376;2022-07-22T02:13:15;95033.28;;;20.71;100.00
6030;BME280;3043;42.682;23.376;2022-07-22T02:15:41;95046.09;;;20.63;100.00
6030;BME280;3043;42.682;23.376;2022-07-22T02:18:16;95051.53;;;20.32;100.00
6030;BME280;3043;42.682;23.376;2022-07-22T02:20:42;95030.47;;;20.04;100.00
6030;BME280;3043;42.682;23.376;2022-07-22T02:23:07;95061.31;;;20.16;100.00
6030;BME280;3043;42.682;23.376;2022-07-22T02:25:33;95049.59;;;20.06;100.00
6030;BME280;3043;42.682;23.376;2022-07-22T02:27:59;95034.75;;;19.91;100.00
6030;BME280;3043;42.682;23.376;2022-07-22T02:30:25;95054.28;;;20.01;100.00
6030;BME280;3043;42.682;23.376;2022-07-22T02:32:50;95060.13;;;20.06;100.00
6030;BME280;3043;42.682;23.376;2022-07-22T02:35:16;95048.91;;;20.18;100.00
6030;BME280;3043;42.682;23.376;2022-07-22T02:37:41;95044.97;;;20.25;100.00
6030;BME280;3043;42.682;23.376;2022-07-22T02:40:07;95041.28;;;20.13;100.00
6030;BME280;3043;42.682;23.376;2022-07-22T02:42:33;95007.38;;;20.09;100.00
6030;BME280;3043;42.682;23.376;2022-07-22T02:44:59;95045.72;;;20.41;100.00
6030;BME280;3043;42.682;23.376;2022-07-22T02:47:24;95022.72;;;20.30;100.00
6030;BME280;3043;42.682;23.376;2022-07-22T02:49:50;95044.94;;;20.53;100.00
6030;BME280;3043;42.682;23.376;2022-07-22T02:52:15;95045.53;;;20.44;100.00
6030;BME280;3043;42.682;23.376;2022-07-22T02:54:41;95027.22;;;20.28;100.00
6030;BME280;3043;42.682;23.376;2022-07-22T02:57:06;95027.50;;;20.38;100.00
6030;BME280;3043;42.682;23.376;2022-07-22T02:59:32;95040.63;;;20.38;100.00
6030;BME280;3043;42.682;23.376;2022-07-22T03:01:57;95005.50;;;20.11;100.00
6030;BME280;3043;42.682;23.376;2022-07-22T03:04:22;95040.63;;;20.24;100.00
6030;BME280;3043;42.682;23.376;2022-07-22T03:06:48;95025.66;;;20.10;100.00
6030;BME280;3043;42.682;23.376;2022-07-22T03:09:13;95052.81;;;20.11;100.00
6030;BME280;3043;42.682;23.376;2022-07-22T03:11:39;95015.63;;;20.03;100.00
6030;BME280;3043;42.682;23.376;2022-07-22T03:14:04;95045.59;;;20.28;100.00
6030;BME280;3043;42.682;23.376;2022-07-22T03:16:29;95040.25;;;20.30;100.00
6030;BME280;3043;42.682;23.376;2022-07-22T03:18:55;95044.97;;;20.25;100.00
6030;BME280;3043;42.682;23.376;2022-07-22T03:21:20;95043.06;;;20.27;100.00
6030;BME280;3043;42.682;23.376;2022-07-22T03:23:46;95041.00;;;20.32;100.00
6030;BME280;3043;42.682;23.376;2022-07-22T03:26:12;94979.22;;;20.11;100.00
6030;BME280;3043;42.682;23.376;2022-07-22T03:28:37;95015.66;;;20.45;100.00
6030;BME280;3043;42.682;23.376;2022-07-22T03:31:03;95044.34;;;20.76;100.00
6030;BME280;3043;42.682;23.376;2022-07-22T03:33:28;95055.78;;;21.03;100.00
6030;BME280;3043;42.682;23.376;2022-07-22T03:35:53;95053.81;;;21.33;100.00
6030;BME280;3043;42.682;23.376;2022-07-22T03:38:19;95060.13;;;21.57;100.00
6030;BME280;3043;42.682;23.376;2022-07-22T03:40:44;95052.50;;;21.79;100.00
6030;BME280;3043;42.682;23.376;2022-07-22T03:43:10;95025.53;;;22.01;100.00
6030;BME280;3043;42.682;23.376;2022-07-22T03:45:35;95061.28;;;22.42;100.00
6030;BME280;3043;42.682;23.376;2022-07-22T03:48:00;95062.56;;;22.74;100.00
6030;BME280;3043;42.682;23.376;2022-07-22T03:50:26;95059.84;;;23.12;100.00
6030;BME280;3043;42.682;23.376;2022-07-22T03:52:51;95066.78;;;23.26;100.00
6030;BME280;3043;42.682;23.376;2022-07-22T03:55:17;95066.91;;;23.48;100.00
6030;BME280;3043;42.682;23.376;2022-07-22T03:57:42;95068.00;;;23.80;100.00
6030;BME280;3043;42.682;23.376;2022-07-22T04:00:08;95061.91;;;24.14;100.00
6030;BME280;3043;42.682;23.376;2022-07-22T04:02:34;95065.91;;;24.41;100.00
6030;BME280;3043;42.682;23.376;2022-07-22T04:04:59;95069.69;;;24.72;99.43
6030;BME280;3043;42.682;23.376;2022-07-22T04:07:25;95048.66;;;24.93;96.28
6030;BME280;3043;42.682;23.376;2022-07-22T04:09:50;95079.06;;;25.42;93.70
6030;BME280;3043;42.682;23.376;2022-07-22T04:12:15;95063.75;;;25.77;89.17
6030;BME280;3043;42.682;23.376;2022-07-22T04:14:41;95069.88;;;26.21;83.88
6030;BME280;3043;42.682;23.376;2022-07-22T04:17:06;95061.81;;;26.32;82.15
6030;BME280;3043;42.682;23.376;2022-07-22T04:19:32;95072.19;;;26.55;80.42
6030;BME280;3043;42.682;23.376;2022-07-22T04:21:57;95069.44;;;26.87;78.82
6030;BME280;3043;42.682;23.376;2022-07-22T04:24:22;95090.47;;;27.09;77.86
6030;BME280;3043;42.682;23.376;2022-07-22T04:26:48;95087.53;;;27.32;75.53
6030;BME280;3043;42.682;23.376;2022-07-22T04:29:14;95087.38;;;27.93;70.82
6030;BME280;3043;42.682;23.376;2022-07-22T04:31:39;95092.69;;;28.40;67.45
6030;BME280;3043;42.682;23.376;2022-07-22T04:34:05;95084.53;;;28.70;65.09
6030;BME280;3043;42.682;23.376;2022-07-22T04:36:30;95102.66;;;29.13;63.33
6030;BME280;3043;42.682;23.376;2022-07-22T04:38:55;95089.59;;;29.47;59.87
6030;BME280;3043;42.682;23.376;2022-07-22T04:41:21;95099.09;;;29.59;58.84
6030;BME280;3043;42.682;23.376;2022-07-22T04:43:47;95078.47;;;29.33;58.67
6030;BME280;3043;42.682;23.376;2022-07-22T04:46:13;95104.13;;;29.62;58.82
6030;BME280;3043;42.682;23.376;2022-07-22T04:48:38;95079.66;;;30.11;56.01
6030;BME280;3043;42.682;23.376;2022-07-22T04:51:04;95109.47;;;30.59;54.98
6030;BME280;3043;42.682;23.376;2022-07-22T04:53:29;95120.28;;;30.92;52.97
6030;BME280;3043;42.682;23.376;2022-07-22T04:55:55;95117.59;;;31.18;51.29
6030;BME280;3043;42.682;23.376;2022-07-22T04:58:20;95123.84;;;31.52;49.75
6030;BME280;3043;42.682;23.376;2022-07-22T05:00:46;95123.13;;;31.84;48.61
6030;BME280;3043;42.682;23.376;2022-07-22T05:03:12;95123.69;;;32.03;47.88
6030;BME280;3043;42.682;23.376;2022-07-22T05:05:38;95104.97;;;32.27;46.56
6030;BME280;3043;42.682;23.376;2022-07-22T05:08:03;95117.75;;;32.41;46.41
6030;BME280;3043;42.682;23.376;2022-07-22T05:10:29;95104.53;;;33.04;44.67
6030;BME280;3043;42.682;23.376;2022-07-22T05:12:54;95127.44;;;33.47;43.93
6030;BME280;3043;42.682;23.376;2022-07-22T05:15:20;95122.34;;;33.52;43.26
6030;BME280;3043;42.682;23.376;2022-07-22T05:17:45;95120.00;;;34.26;42.00
6030;BME280;3043;42.682;23.376;2022-07-22T05:20:11;95121.56;;;34.51;40.73
6030;BME280;3043;42.682;23.376;2022-07-22T05:22:37;95118.13;;;35.02;39.34
6030;BME280;3043;42.682;23.376;2022-07-22T05:25:03;95128.75;;;35.18;39.31
6030;BME280;3043;42.682;23.376;2022-07-22T05:27:28;95107.88;;;35.49;38.38
6030;BME280;3043;42.682;23.376;2022-07-22T05:29:54;95132.69;;;35.59;37.88
6030;BME280;3043;42.682;23.376;2022-07-22T05:32:19;95136.88;;;36.27;37.21
6030;BME280;3043;42.682;23.376;2022-07-22T05:34:44;95143.75;;;36.08;37.29
6030;BME280;3043;42.682;23.376;2022-07-22T05:37:10;95142.88;;;36.37;36.71
6030;BME280;3043;42.682;23.376;2022-07-22T05:39:35;95140.97;;;36.37;36.83
6030;BME280;3043;42.682;23.376;2022-07-22T05:42:01;95122.56;;;36.76;35.55
6030;BME280;3043;42.682;23.376;2022-07-22T05:44:26;95142.75;;;37.08;35.37
6030;BME280;3043;42.682;23.376;2022-07-22T05:46:52;95131.81;;;37.37;34.37
6030;BME280;3043;42.682;23.376;2022-07-22T05:49:17;95123.00;;;37.01;34.57
6030;BME280;3043;42.682;23.376;2022-07-22T05:51:43;95136.41;;;37.43;34.48
6030;BME280;3043;42.682;23.376;2022-07-22T05:54:09;95133.03;;;37.34;34.18
6030;BME280;3043;42.682;23.376;2022-07-22T05:56:34;95143.56;;;36.81;35.32
6030;BME280;3043;42.682;23.376;2022-07-22T05:59:00;95135.69;;;37.62;34.08
6030;BME280;3043;42.682;23.376;2022-07-22T06:01:25;95118.50;;;38.04;33.00
6030;BME280;3043;42.682;23.376;2022-07-22T06:03:51;95138.72;;;38.74;31.58
6030;BME280;3043;42.682;23.376;2022-07-22T06:06:16;95129.50;;;38.49;31.52
6030;BME280;3043;42.682;23.376;2022-07-22T06:08:42;95133.13;;;38.82;30.86
6030;BME280;3043;42.682;23.376;2022-07-22T06:11:08;95136.75;;;37.95;32.21
6030;BME280;3043;42.682;23.376;2022-07-22T06:13:34;95135.44;;;37.78;32.21
6030;BME280;3043;42.682;23.376;2022-07-22T06:16:00;95134.13;;;38.55;30.90
6030;BME280;3043;42.682;23.376;2022-07-22T06:18:26;95138.59;;;38.35;31.46
6030;BME280;3043;42.682;23.376;2022-07-22T06:20:51;95134.69;;;37.97;31.50
6030;BME280;3043;42.682;23.376;2022-07-22T06:23:17;95144.00;;;38.22;32.10
6030;BME280;3043;42.682;23.376;2022-07-22T06:25:43;95133.94;;;38.63;31.13
6030;BME280;3043;42.682;23.376;2022-07-22T06:28:09;95112.91;;;38.65;30.34
6030;BME280;3043;42.682;23.376;2022-07-22T06:30:35;95131.72;;;38.26;30.58
6030;BME280;3043;42.682;23.376;2022-07-22T06:33:00;95134.91;;;38.49;30.80
6030;BME280;3043;42.682;23.376;2022-07-22T06:35:26;95135.69;;;38.37;31.14
6030;BME280;3043;42.682;23.376;2022-07-22T06:37:52;95143.81;;;39.03;30.86
6030;BME280;3043;42.682;23.376;2022-07-22T06:40:18;95134.66;;;39.18;30.43
6030;BME280;3043;42.682;23.376;2022-07-22T06:42:43;95143.41;;;39.46;29.70
6030;BME280;3043;42.682;23.376;2022-07-22T06:45:10;95118.97;;;39.72;29.01
6030;BME280;3043;42.682;23.376;2022-07-22T06:47:35;95134.47;;;40.28;28.67
6030;BME280;3043;42.682;23.376;2022-07-22T06:50:03;95132.28;;;40.50;28.45
6030;BME280;3043;42.682;23.376;2022-07-22T06:52:29;95143.25;;;40.99;28.33
6030;BME280;3043;42.682;23.376;2022-07-22T06:54:54;95133.03;;;41.32;27.62
6030;BME280;3043;42.682;23.376;2022-07-22T06:57:20;95133.13;;;41.19;27.53
6030;BME280;3043;42.682;23.376;2022-07-22T06:59:45;95133.56;;;41.41;27.11
6030;BME280;3043;42.682;23.376;2022-07-22T07:02:10;95130.31;;;41.32;27.46
6030;BME280;3043;42.682;23.376;2022-07-22T07:04:36;95134.03;;;41.62;26.65
6030;BME280;3043;42.682;23.376;2022-07-22T07:07:02;95142.00;;;41.57;27.13
6030;BME280;3043;42.682;23.376;2022-07-22T07:09:27;95140.13;;;40.71;27.56
6030;BME280;3043;42.682;23.376;2022-07-22T07:11:52;95132.50;;;40.86;27.48
6030;BME280;3043;42.682;23.376;2022-07-22T07:14:18;95124.13;;;41.43;26.50
6030;BME280;3043;42.682;23.376;2022-07-22T07:16:43;95132.84;;;40.96;26.59
6030;BME280;3043;42.682;23.376;2022-07-22T07:19:09;95118.69;;;41.43;25.88
6030;BME280;3043;42.682;23.376;2022-07-22T07:21:34;95139.31;;;41.75;25.54
6030;BME280;3043;42.682;23.376;2022-07-22T07:23:59;95147.28;;;40.52;26.36
6030;BME280;3043;42.682;23.376;2022-07-22T07:26:26;95131.59;;;40.10;27.26
6030;BME280;3043;42.682;23.376;2022-07-22T07:28:52;95101.69;;;39.60;27.06
6030;BME280;3043;42.682;23.376;2022-07-22T07:31:17;95146.00;;;40.68;27.01
6030;BME280;3043;42.682;23.376;2022-07-22T07:33:43;95136.25;;;41.72;26.23
6030;BME280;3043;42.682;23.376;2022-07-22T07:36:08;95120.63;;;42.03;25.31
6030;BME280;3043;42.682;23.376;2022-07-22T07:38:33;95118.41;;;41.76;25.52
6030;BME280;3043;42.682;23.376;2022-07-22T07:40:59;95130.59;;;40.49;26.33
6030;BME280;3043;42.682;23.376;2022-07-22T07:43:25;95128.41;;;41.33;26.00
6030;BME280;3043;42.682;23.376;2022-07-22T07:45:50;95127.78;;;41.06;26.24
6030;BME280;3043;42.682;23.376;2022-07-22T07:48:16;95136.09;;;41.36;26.10
6030;BME280;3043;42.682;23.376;2022-07-22T07:50:41;95133.94;;;42.11;25.62
6030;BME280;3043;42.682;23.376;2022-07-22T07:53:06;95144.81;;;42.48;24.96
6030;BME280;3043;42.682;23.376;2022-07-22T07:55:32;95098.09;;;42.51;24.88
6030;BME280;3043;42.682;23.376;2022-07-22T07:58:01;95142.97;;;43.60;23.24
6030;BME280;3043;42.682;23.376;2022-07-22T08:00:26;95139.84;;;42.45;24.49
6030;BME280;3043;42.682;23.376;2022-07-22T08:02:53;95122.69;;;42.56;23.82
6030;BME280;3043;42.682;23.376;2022-07-22T08:05:21;95140.72;;;42.02;24.84
6030;BME280;3043;42.682;23.376;2022-07-22T08:07:47;95139.69;;;42.22;24.67
6030;BME280;3043;42.682;23.376;2022-07-22T08:10:13;95130.53;;;42.82;23.72
6030;BME280;3043;42.682;23.376;2022-07-22T08:12:39;95152.72;;;43.38;23.15
6030;BME280;3043;42.682;23.376;2022-07-22T08:15:05;95142.38;;;42.58;23.41
6030;BME280;3043;42.682;23.376;2022-07-22T08:17:30;95147.63;;;42.89;23.43
6030;BME280;3043;42.682;23.376;2022-07-22T08:19:56;95129.06;;;43.50;22.94
6030;BME280;3043;42.682;23.376;2022-07-22T08:22:21;95146.38;;;44.36;22.84
6030;BME280;3043;42.682;23.376;2022-07-22T08:24:46;95143.53;;;43.85;21.93
6030;BME280;3043;42.682;23.376;2022-07-22T08:27:12;95143.66;;;44.13;21.26
6030;BME280;3043;42.682;23.376;2022-07-22T08:29:38;95144.97;;;43.64;21.73
6030;BME280;3043;42.682;23.376;2022-07-22T08:32:03;95141.19;;;43.77;21.81
6030;BME280;3043;42.682;23.376;2022-07-22T08:34:29;95144.56;;;42.97;22.46
6030;BME280;3043;42.682;23.376;2022-07-22T08:36:54;95146.38;;;44.36;22.34
6030;BME280;3043;42.682;23.376;2022-07-22T08:39:19;95142.19;;;44.45;22.10
6030;BME280;3043;42.682;23.376;2022-07-22T08:41:45;95143.69;;;44.64;20.76
6030;BME280;3043;42.682;23.376;2022-07-22T08:44:10;95139.06;;;44.53;21.18
6030;BME280;3043;42.682;23.376;2022-07-22T08:46:36;95144.75;;;45.19;21.11
6030;BME280;3043;42.682;23.376;2022-07-22T08:49:02;95141.78;;;45.21;21.30
6030;BME280;3043;42.682;23.376;2022-07-22T08:51:28;95143.22;;;45.73;19.95
6030;BME280;3043;42.682;23.376;2022-07-22T08:53:55;95143.69;;;46.20;19.70
6030;BME280;3043;42.682;23.376;2022-07-22T08:56:20;95144.22;;;45.51;20.26
6030;BME280;3043;42.682;23.376;2022-07-22T08:58:46;95119.81;;;45.16;20.16
6030;BME280;3043;42.682;23.376;2022-07-22T09:01:16;95136.97;;;44.83;20.54
6030;BME280;3043;42.682;23.376;2022-07-22T09:03:55;95147.34;;;44.07;20.91
6030;BME280;3043;42.682;23.376;2022-07-22T09:06:27;95129.28;;;43.25;21.88
6030;BME280;3043;42.682;23.376;2022-07-22T09:09:04;95130.00;;;43.03;21.85
6030;BME280;3043;42.682;23.376;2022-07-22T09:11:30;95137.31;;;43.32;21.78
6030;BME280;3043;42.682;23.376;2022-07-22T09:14:00;95142.13;;;43.71;22.09
6030;BME280;3043;42.682;23.376;2022-07-22T09:16:47;95151.84;;;44.13;21.52
6030;BME280;3043;42.682;23.376;2022-07-22T09:19:13;95131.78;;;44.70;20.54
6030;BME280;3043;42.682;23.376;2022-07-22T09:21:42;95141.91;;;42.31;21.80
6030;BME280;3043;42.682;23.376;2022-07-22T09:24:09;95141.34;;;43.18;21.94
6030;BME280;3043;42.682;23.376;2022-07-22T09:26:54;95147.91;;;44.09;21.74
6030;BME280;3043;42.682;23.376;2022-07-22T09:29:19;95130.63;;;44.66;20.83
6030;BME280;3043;42.682;23.376;2022-07-22T09:31:50;95149.03;;;44.71;20.79
6030;BME280;3043;42.682;23.376;2022-07-22T09:34:27;95121.25;;;44.90;20.52
6030;BME280;3043;42.682;23.376;2022-07-22T09:36:57;95123.56;;;44.42;20.79
6030;BME280;3043;42.682;23.376;2022-07-22T09:39:26;95122.44;;;43.69;20.78
6030;BME280;3043;42.682;23.376;2022-07-22T09:42:00;95134.66;;;44.01;20.81
6030;BME280;3043;42.682;23.376;2022-07-22T09:44:25;95133.56;;;43.56;21.13
6030;BME280;3043;42.682;23.376;2022-07-22T09:46:51;95127.69;;;42.77;22.29
6030;BME280;3043;42.682;23.376;2022-07-22T09:49:36;95131.91;;;43.55;21.15
6030;BME280;3043;42.682;23.376;2022-07-22T09:52:04;95102.25;;;43.47;21.04
6030;BME280;3043;42.682;23.376;2022-07-22T09:54:30;95095.66;;;43.66;21.35
6030;BME280;3043;42.682;23.376;2022-07-22T09:56:56;95122.09;;;43.77;21.07
6030;BME280;3043;42.682;23.376;2022-07-22T09:59:21;95106.69;;;44.45;20.93
6030;BME280;3043;42.682;23.376;2022-07-22T10:01:50;95121.72;;;44.08;21.38
6030;BME280;3043;42.682;23.376;2022-07-22T10:04:19;95119.69;;;43.46;21.47
6030;BME280;3043;42.682;23.376;2022-07-22T10:06:47;95115.06;;;42.94;21.76
6030;BME280;3043;42.682;23.376;2022-07-22T10:09:14;95115.66;;;41.58;22.98
6030;BME280;3043;42.682;23.376;2022-07-22T10:11:40;95100.69;;;41.91;23.38
6030;BME280;3043;42.682;23.376;2022-07-22T10:14:11;95120.84;;;42.86;21.64
6030;BME280;3043;42.682;23.376;2022-07-22T10:16:37;95101.91;;;42.91;21.76
6030;BME280;3043;42.682;23.376;2022-07-22T10:19:03;95105.69;;;42.90;22.18
6030;BME280;3043;42.682;23.376;2022-07-22T10:21:33;95111.41;;;43.00;21.71
6030;BME280;3043;42.682;23.376;2022-07-22T10:24:08;95107.91;;;42.52;22.42
6030;BME280;3043;42.682;23.376;2022-07-22T10:29:41;95096.38;;;42.02;22.08
6030;BME280;3043;42.682;23.376;2022-07-22T10:34:41;95097.34;;;41.22;23.40
6030;BME280;3043;42.682;23.376;2022-07-22T10:40:15;95101.13;;;40.15;24.28
6030;BME280;3043;42.682;23.376;2022-07-22T10:45:24;95094.09;;;40.01;24.78
6030;BME280;3043;42.682;23.376;2022-07-22T10:48:00;95085.91;;;40.14;24.08
6030;BME280;3043;42.682;23.376;2022-07-22T10:53:13;95095.06;;;40.13;24.23
6030;BME280;3043;42.682;23.376;2022-07-22T10:56:18;95092.88;;;39.97;24.43
6030;BME280;3043;42.682;23.376;2022-07-22T10:58:47;95090.19;;;39.84;24.30
6030;BME280;3043;42.682;23.376;2022-07-22T11:01:15;95072.94;;;39.59;24.85
6030;BME280;3043;42.682;23.376;2022-07-22T11:03:44;95096.63;;;39.83;24.16
6030;BME280;3043;42.682;23.376;2022-07-22T11:08:38;95076.47;;;39.40;24.63
6030;BME280;3043;42.682;23.376;2022-07-22T11:11:04;95082.97;;;39.19;25.07
6030;BME280;3043;42.682;23.376;2022-07-22T11:13:40;95074.22;;;38.97;24.78
6030;BME280;3043;42.682;23.376;2022-07-22T11:16:23;95064.59;;;38.62;25.36
6030;BME280;3043;42.682;23.376;2022-07-22T11:18:54;95077.03;;;38.50;25.41
6030;BME280;3043;42.682;23.376;2022-07-22T11:21:23;95071.03;;;37.95;25.92
6030;BME280;3043;42.682;23.376;2022-07-22T11:23:51;95035.78;;;37.28;27.08
6030;BME280;3043;42.682;23.376;2022-07-22T11:26:18;95066.69;;;37.25;26.94
6030;BME280;3043;42.682;23.376;2022-07-22T11:28:45;95073.97;;;37.25;26.74
6030;BME280;3043;42.682;23.376;2022-07-22T11:31:16;95071.78;;;37.14;26.83
6030;BME280;3043;42.682;23.376;2022-07-22T11:33:42;95056.22;;;37.16;26.86
6030;BME280;3043;42.682;23.376;2022-07-22T11:36:09;95041.63;;;37.04;27.32
6030;BME280;3043;42.682;23.376;2022-07-22T11:38:45;95065.75;;;37.12;27.01
6030;BME280;3043;42.682;23.376;2022-07-22T11:41:11;95061.19;;;36.85;27.58
6030;BME280;3043;42.682;23.376;2022-07-22T11:43:48;95061.66;;;36.74;27.62
6030;BME280;3043;42.682;23.376;2022-07-22T11:46:15;95056.03;;;36.69;27.79
6030;BME280;3043;42.682;23.376;2022-07-22T11:48:42;95055.53;;;36.80;27.45
6030;BME280;3043;42.682;23.376;2022-07-22T11:51:08;95058.34;;;36.93;27.46
6030;BME280;3043;42.682;23.376;2022-07-22T11:53:36;95053.22;;;36.77;27.96
6030;BME280;3043;42.682;23.376;2022-07-22T11:56:03;95050.78;;;36.40;28.18
6030;BME280;3043;42.682;23.376;2022-07-22T11:58:43;95049.72;;;36.20;28.31
6030;BME280;3043;42.682;23.376;2022-07-22T12:01:13;95053.97;;;35.93;28.46
6030;BME280;3043;42.682;23.376;2022-07-22T12:03:41;95064.88;;;35.70;28.61
6030;BME280;3043;42.682;23.376;2022-07-22T12:06:11;95042.78;;;35.31;29.75
6030;BME280;3043;42.682;23.376;2022-07-22T12:08:45;95050.94;;;35.23;29.23
6030;BME280;3043;42.682;23.376;2022-07-22T12:11:13;95058.06;;;34.87;30.23
6030;BME280;3043;42.682;23.376;2022-07-22T12:13:47;95051.72;;;34.80;30.10
6030;BME280;3043;42.682;23.376;2022-07-22T12:18:44;95046.97;;;34.82;30.63
6030;BME280;3043;42.682;23.376;2022-07-22T12:21:15;95041.97;;;34.79;30.95
6030;BME280;3043;42.682;23.376;2022-07-22T12:23:49;95040.41;;;34.85;30.40
6030;BME280;3043;42.682;23.376;2022-07-22T12:26:15;95037.31;;;34.96;30.32
6030;BME280;3043;42.682;23.376;2022-07-22T12:28:40;95038.53;;;35.08;30.62
6030;BME280;3043;42.682;23.376;2022-07-22T12:31:06;95039.63;;;35.13;30.43
6030;BME280;3043;42.682;23.376;2022-07-22T12:33:31;95045.94;;;35.20;30.09
6030;BME280;3043;42.682;23.376;2022-07-22T12:35:59;95009.47;;;34.89;30.15
6030;BME280;3043;42.682;23.376;2022-07-22T12:38:25;95042.94;;;34.86;28.76
6030;BME280;3043;42.682;23.376;2022-07-22T12:40:51;95023.97;;;34.65;28.38
6030;BME280;3043;42.682;23.376;2022-07-22T12:43:16;95032.94;;;34.58;29.67
6030;BME280;3043;42.682;23.376;2022-07-22T12:45:42;95022.81;;;34.45;29.79
6030;BME280;3043;42.682;23.376;2022-07-22T12:48:09;95030.94;;;34.29;29.73
6030;BME280;3043;42.682;23.376;2022-07-22T12:50:41;95033.91;;;34.19;30.22
6030;BME280;3043;42.682;23.376;2022-07-22T12:53:15;95011.94;;;33.93;29.72
6030;BME280;3043;42.682;23.376;2022-07-22T12:55:51;95027.38;;;33.83;30.09
6030;BME280;3043;42.682;23.376;2022-07-22T12:58:18;95035.00;;;33.72;30.61
6030;BME280;3043;42.682;23.376;2022-07-22T13:00:48;95000.84;;;33.58;29.47
6030;BME280;3043;42.682;23.376;2022-07-22T13:03:14;95023.44;;;33.71;30.06
6030;BME280;3043;42.682;23.376;2022-07-22T13:05:40;95005.63;;;33.48;29.98
6030;BME280;3043;42.682;23.376;2022-07-22T13:08:06;95027.09;;;33.48;30.20
6030;BME280;3043;42.682;23.376;2022-07-22T13:10:32;95034.06;;;33.65;29.50
6030;BME280;3043;42.682;23.376;2022-07-22T13:12:57;95036.28;;;33.53;29.32
6030;BME280;3043;42.682;23.376;2022-07-22T13:15:23;95023.38;;;33.49;29.72
6030;BME280;3043;42.682;23.376;2022-07-22T13:17:50;95035.84;;;33.34;29.35
6030;BME280;3043;42.682;23.376;2022-07-22T13:20:16;95034.19;;;33.33;28.20
6030;BME280;3043;42.682;23.376;2022-07-22T13:22:47;95030.47;;;33.34;28.62
6030;BME280;3043;42.682;23.376;2022-07-22T13:25:13;95044.25;;;33.23;28.93